Time;durP1;ratioP1;P1;durP2;ratioP2;P2;SDS_P1;SDS_P2;PMS_P1;PMS_P2;Temp;Humidity;BMP_temperature;BMP_pressure;BME280_temperature;BME280_humidity;BME280_pressure;Samples;Min_cycle;Max_cycle;Signal;HPM_P1;HPM_P2
2022/01/29 00:01:32;;;;;;;55.40;29.52;;;;;;;;;;6192422;23;20091;-80
2022/01/29 00:03:58;;;;;;;58.95;28.75;;;;;;;;;;6219126;23;19997;-80
2022/01/29 00:06:24;;;;;;;55.25;27.88;;;;;;;;;;6219228;23;19992;-80
2022/01/29 00:08:52;;;;;;;57.30;29.45;;;;;;;;;;6192588;23;20003;-80
2022/01/29 00:11:18;;;;;;;51.10;25.48;;;;;;;;;;6216757;23;19993;-80
2022/01/29 00:16:12;;;;;;;50.13;26.45;;;;;;;;;;6190899;23;20342;-79
2022/01/29 00:21:09;;;;;;;56.80;29.42;;;;;;;;;;6227709;23;20024;-79
2022/01/29 00:23:35;;;;;;;45.60;26.30;;;;;;;;;;6249869;23;20012;-79
2022/01/29 00:26:02;;;;;;;55.83;28.75;;;;;;;;;;6248253;23;20399;-79
2022/01/29 00:28:28;;;;;;;44.17;25.05;;;;;;;;;;6248781;23;20460;-79
2022/01/29 00:30:56;;;;;;;46.67;28.35;;;;;;;;;;6253175;23;20000;-79
2022/01/29 00:33:22;;;;;;;57.78;30.17;;;;;;;;;;6223051;23;20075;-79
2022/01/29 00:35:48;;;;;;;56.92;27.98;;;;;;;;;;6248925;23;20000;-79
2022/01/29 00:38:14;;;;;;;52.05;27.95;;;;;;;;;;6225124;23;20375;-79
2022/01/29 00:40:41;;;;;;;73.80;39.92;;;;;;;;;;6223421;23;20000;-79
2022/01/29 00:43:07;;;;;;;97.28;50.40;;;;;;;;;;6221531;23;20027;-79
2022/01/29 00:45:34;;;;;;;93.55;49.70;;;;;;;;;;6250861;23;20466;-80
2022/01/29 00:48:00;;;;;;;163.77;79.47;;;;;;;;;;6198649;23;20071;-79
2022/01/29 00:50:26;;;;;;;160.07;80.50;;;;;;;;;;6222288;23;20000;-79
2022/01/29 00:52:52;;;;;;;165.48;78.03;;;;;;;;;;6250157;23;20007;-80
2022/01/29 00:55:19;;;;;;;147.45;73.53;;;;;;;;;;6223626;23;19996;-79
2022/01/29 00:57:45;;;;;;;148.60;76.30;;;;;;;;;;6197080;23;20046;-79
2022/01/29 01:00:12;;;;;;;142.27;78.50;;;;;;;;;;6223012;23;20027;-80
2022/01/29 01:02:39;;;;;;;160.95;84.75;;;;;;;;;;6250538;23;20410;-79
2022/01/29 01:05:06;;;;;;;156.95;80.78;;;;;;;;;;6222054;23;19996;-79
2022/01/29 01:07:32;;;;;;;167.27;84.68;;;;;;;;;;6250656;23;19988;-80
2022/01/29 01:09:58;;;;;;;152.38;82.13;;;;;;;;;;6224350;23;20303;-80
2022/01/29 01:12:24;;;;;;;181.10;87.85;;;;;;;;;;6222076;23;19984;-80
2022/01/29 01:14:50;;;;;;;154.73;78.70;;;;;;;;;;6252036;23;20074;-80
2022/01/29 01:17:18;;;;;;;140.88;74.25;;;;;;;;;;6247643;23;19988;-79
2022/01/29 01:19:45;;;;;;;145.02;75.07;;;;;;;;;;6248870;23;20008;-79
2022/01/29 01:22:11;;;;;;;145.98;76.88;;;;;;;;;;6197577;23;20000;-79
2022/01/29 01:27:06;;;;;;;143.30;73.13;;;;;;;;;;6221228;23;19915;-79
2022/01/29 01:39:28;;;;;;;154.35;77.75;;;;;;;;;;6221532;23;20020;-79
2022/01/29 01:42:12;;;;;;;133.73;74.07;;;;;;;;;;6248069;23;20003;-79
2022/01/29 01:44:40;;;;;;;134.35;65.88;;;;;;;;;;6198194;23;20003;-79
2022/01/29 01:47:07;;;;;;;131.30;70.78;;;;;;;;;;6221538;23;20028;-79
2022/01/29 01:49:33;;;;;;;131.85;67.72;;;;;;;;;;6221411;23;19997;-79
2022/01/29 01:57:07;;;;;;;133.10;71.78;;;;;;;;;;6228088;23;20020;-81
2022/01/29 01:59:33;;;;;;;134.38;69.85;;;;;;;;;;6247743;23;19996;-81
2022/01/29 02:01:59;;;;;;;109.22;65.40;;;;;;;;;;6223095;23;20015;-81
2022/01/29 02:04:26;;;;;;;111.97;59.25;;;;;;;;;;6222420;23;20007;-81
2022/01/29 02:06:53;;;;;;;104.20;56.17;;;;;;;;;;6221050;23;19995;-81
2022/01/29 02:09:22;;;;;;;117.22;56.67;;;;;;;;;;6223080;23;19992;-81
2022/01/29 02:11:55;;;;;;;120.65;61.58;;;;;;;;;;6197641;23;19997;-81
2022/01/29 02:14:26;;;;;;;117.75;59.70;;;;;;;;;;6248364;23;19999;-81
2022/01/29 02:16:52;;;;;;;111.00;60.75;;;;;;;;;;6222252;23;19988;-81
2022/01/29 02:19:18;;;;;;;123.18;63.05;;;;;;;;;;6249783;23;20004;-82
2022/01/29 02:21:44;;;;;;;136.85;65.85;;;;;;;;;;6229808;23;20410;-81
2022/01/29 02:24:10;;;;;;;141.23;69.32;;;;;;;;;;6230215;23;20356;-81
2022/01/29 02:26:37;;;;;;;128.45;66.40;;;;;;;;;;6224234;23;20126;-82
2022/01/29 02:29:03;;;;;;;102.93;56.17;;;;;;;;;;6247574;23;19998;-81
2022/01/29 02:31:29;;;;;;;131.40;59.45;;;;;;;;;;6221610;23;20075;-81
2022/01/29 02:33:55;;;;;;;110.97;58.63;;;;;;;;;;6224357;23;19993;-81
2022/01/29 02:36:21;;;;;;;99.47;54.60;;;;;;;;;;6225299;23;20020;-81
2022/01/29 02:38:48;;;;;;;104.68;52.17;;;;;;;;;;6222798;23;20291;-81
2022/01/29 02:41:14;;;;;;;107.13;54.30;;;;;;;;;;6249209;23;20024;-81
2022/01/29 02:43:48;;;;;;;117.10;59.35;;;;;;;;;;6250434;23;20015;-81
2022/01/29 02:48:49;;;;;;;94.10;49.22;;;;;;;;;;6249627;23;19996;-81
2022/01/29 02:51:16;;;;;;;87.43;49.25;;;;;;;;;;6222222;23;19993;-81
2022/01/29 02:53:42;;;;;;;91.13;54.78;;;;;;;;;;6250094;23;20042;-81
2022/01/29 02:56:09;;;;;;;97.72;50.95;;;;;;;;;;6223177;23;20020;-81
2022/01/29 02:58:35;;;;;;;92.70;47.67;;;;;;;;;;6249340;23;19996;-81
2022/01/29 03:01:02;;;;;;;78.32;47.60;;;;;;;;;;6222235;23;20028;-81
2022/01/29 03:03:28;;;;;;;85.13;47.65;;;;;;;;;;6221338;23;19999;-81
2022/01/29 03:05:54;;;;;;;90.68;48.58;;;;;;;;;;6222291;23;20460;-81
2022/01/29 03:08:20;;;;;;;105.88;47.85;;;;;;;;;;6224324;23;19996;-81
2022/01/29 03:10:47;;;;;;;74.40;43.95;;;;;;;;;;6250521;23;19996;-81
2022/01/29 03:13:13;;;;;;;81.22;43.45;;;;;;;;;;6223915;23;20014;-81
2022/01/29 03:15:40;;;;;;;125.40;63.28;;;;;;;;;;6250174;23;20452;-81
2022/01/29 03:18:06;;;;;;;110.18;56.97;;;;;;;;;;6249284;23;20413;-81
2022/01/29 03:20:32;;;;;;;124.18;64.90;;;;;;;;;;6200976;23;20008;-79
2022/01/29 03:23:00;;;;;;;163.82;73.03;;;;;;;;;;6201377;23;20030;-79
2022/01/29 03:25:26;;;;;;;124.18;64.22;;;;;;;;;;6224333;23;19996;-81
2022/01/29 03:27:52;;;;;;;119.38;59.65;;;;;;;;;;6223522;23;19992;-81
2022/01/29 03:35:13;;;;;;;130.98;64.65;;;;;;;;;;6209153;23;20027;-81
2022/01/29 03:37:39;;;;;;;142.25;65.70;;;;;;;;;;6250331;23;19992;-81
2022/01/29 03:40:08;;;;;;;121.32;61.13;;;;;;;;;;6225085;23;20058;-82
2022/01/29 03:42:44;;;;;;;119.80;58.00;;;;;;;;;;6249740;23;20043;-81
2022/01/29 03:45:10;;;;;;;102.45;46.90;;;;;;;;;;6248886;23;19992;-81
2022/01/29 03:47:36;;;;;;;115.35;47.05;;;;;;;;;;6225363;23;20000;-81
2022/01/29 03:50:03;;;;;;;103.10;46.97;;;;;;;;;;6251014;23;20409;-81
2022/01/29 03:55:05;;;;;;;102.22;51.17;;;;;;;;;;6212197;22;19923;-81
2022/01/29 04:00:06;;;;;;;132.00;62.85;;;;;;;;;;6204599;23;19938;-81
2022/01/29 04:02:32;;;;;;;115.75;62.03;;;;;;;;;;6249632;23;20378;-81
2022/01/29 04:04:58;;;;;;;111.38;52.78;;;;;;;;;;6249387;23;20062;-80
2022/01/29 04:07:24;;;;;;;103.30;50.72;;;;;;;;;;6197597;23;19993;-81
2022/01/29 04:09:52;;;;;;;105.90;53.88;;;;;;;;;;6250682;23;20353;-80
2022/01/29 04:12:18;;;;;;;98.30;52.47;;;;;;;;;;6222995;23;20003;-80
2022/01/29 04:14:44;;;;;;;76.45;39.35;;;;;;;;;;6222483;23;19996;-81
2022/01/29 04:19:46;;;;;;;100.57;43.42;;;;;;;;;;6223224;23;19973;-80
2022/01/29 04:29:51;;;;;;;77.95;40.58;;;;;;;;;;6202677;23;20035;-80
2022/01/29 04:32:21;;;;;;;77.70;37.03;;;;;;;;;;6221823;23;19992;-80
2022/01/29 04:34:47;;;;;;;126.45;46.50;;;;;;;;;;6248139;23;20003;-80
2022/01/29 04:37:13;;;;;;;111.10;54.28;;;;;;;;;;6222309;23;19992;-80
2022/01/29 04:39:39;;;;;;;130.02;59.38;;;;;;;;;;6222337;23;20008;-80
2022/01/29 04:42:05;;;;;;;110.63;59.67;;;;;;;;;;6223934;23;20039;-81
2022/01/29 04:44:31;;;;;;;125.28;60.38;;;;;;;;;;6248920;23;20010;-80
2022/01/29 04:46:57;;;;;;;110.97;52.88;;;;;;;;;;6257489;23;20007;-80
2022/01/29 04:49:23;;;;;;;108.88;54.10;;;;;;;;;;6247570;23;20103;-81
2022/01/29 04:51:49;;;;;;;116.35;57.20;;;;;;;;;;6250375;23;19996;-80
2022/01/29 04:54:15;;;;;;;117.53;54.83;;;;;;;;;;6251389;23;20306;-81
2022/01/29 04:56:41;;;;;;;103.32;53.33;;;;;;;;;;6249967;23;20420;-80
2022/01/29 04:59:07;;;;;;;98.32;51.88;;;;;;;;;;6250941;23;20050;-80
2022/01/29 05:01:33;;;;;;;124.88;61.40;;;;;;;;;;6197909;23;20402;-80
2022/01/29 05:03:59;;;;;;;147.38;73.05;;;;;;;;;;6198333;23;20003;-80
2022/01/29 05:06:26;;;;;;;144.05;69.03;;;;;;;;;;6249193;23;20051;-80
2022/01/29 05:08:52;;;;;;;154.23;72.95;;;;;;;;;;6251268;23;20341;-81
2022/01/29 05:11:18;;;;;;;167.32;76.25;;;;;;;;;;6196870;23;19996;-80
2022/01/29 05:13:44;;;;;;;157.80;86.60;;;;;;;;;;6250573;23;19992;-80
2022/01/29 05:27:09;;;;;;;190.55;88.93;;;;;;;;;;6250826;23;20002;-80
2022/01/29 05:29:37;;;;;;;192.73;88.63;;;;;;;;;;6249001;23;20016;-81
2022/01/29 05:32:05;;;;;;;205.95;106.40;;;;;;;;;;6249042;23;20349;-80
2022/01/29 05:34:31;;;;;;;196.60;104.95;;;;;;;;;;6250546;23;19999;-80
2022/01/29 05:36:58;;;;;;;206.48;105.90;;;;;;;;;;6222418;23;20371;-80
2022/01/29 05:39:26;;;;;;;222.35;113.57;;;;;;;;;;6247436;23;19993;-80
2022/01/29 05:41:53;;;;;;;234.68;113.03;;;;;;;;;;6248455;23;20008;-80
2022/01/29 05:44:20;;;;;;;202.80;104.70;;;;;;;;;;6222655;23;20064;-80
2022/01/29 05:46:46;;;;;;;198.27;98.05;;;;;;;;;;6221979;23;20019;-81
2022/01/29 05:49:12;;;;;;;195.77;98.88;;;;;;;;;;6248811;23;19992;-81
2022/01/29 05:51:38;;;;;;;186.63;92.32;;;;;;;;;;6222177;23;20069;-81
2022/01/29 05:54:04;;;;;;;181.63;86.78;;;;;;;;;;6220847;23;20051;-80
2022/01/29 05:56:31;;;;;;;158.90;77.35;;;;;;;;;;6248930;23;20453;-81
2022/01/29 05:58:57;;;;;;;151.05;72.38;;;;;;;;;;6222177;23;20000;-80
2022/01/29 06:06:34;;;;;;;132.88;71.43;;;;;;;;;;6229548;22;20293;-80
2022/01/29 06:09:04;;;;;;;103.80;53.63;;;;;;;;;;6254753;23;20016;-80
2022/01/29 06:11:31;;;;;;;102.28;47.92;;;;;;;;;;6226084;23;20002;-80
2022/01/29 06:18:56;;;;;;;89.10;40.15;;;;;;;;;;6224604;22;20103;-80
2022/01/29 06:21:22;;;;;;;89.03;39.25;;;;;;;;;;6248370;23;20390;-80
2022/01/29 06:23:48;;;;;;;104.03;37.70;;;;;;;;;;6223945;23;20000;-80
2022/01/29 06:26:14;;;;;;;95.10;40.30;;;;;;;;;;6248201;23;20003;-79
2022/01/29 06:28:40;;;;;;;80.13;37.45;;;;;;;;;;6221711;23;20016;-79
2022/01/29 06:31:06;;;;;;;86.15;36.22;;;;;;;;;;6247395;23;20015;-79
2022/01/29 06:33:32;;;;;;;88.10;40.33;;;;;;;;;;6224544;23;20008;-79
2022/01/29 06:35:59;;;;;;;108.63;54.40;;;;;;;;;;6191761;23;20008;-79
2022/01/29 06:38:25;;;;;;;204.60;95.18;;;;;;;;;;6248399;23;20075;-79
2022/01/29 06:43:19;;;;;;;165.55;82.78;;;;;;;;;;6216893;23;20369;-80
2022/01/29 06:45:45;;;;;;;195.05;106.15;;;;;;;;;;6250012;23;19996;-80
2022/01/29 06:48:12;;;;;;;224.00;113.60;;;;;;;;;;6223599;23;19992;-80
2022/01/29 06:50:38;;;;;;;210.63;118.15;;;;;;;;;;6224190;23;20002;-80
2022/01/29 06:53:05;;;;;;;247.20;128.40;;;;;;;;;;6223897;23;19999;-80
2022/01/29 06:55:31;;;;;;;226.23;124.93;;;;;;;;;;6249207;23;19984;-80
2022/01/29 06:57:57;;;;;;;231.77;122.22;;;;;;;;;;6223469;23;20085;-80
2022/01/29 07:00:24;;;;;;;208.05;116.47;;;;;;;;;;6201972;23;20014;-80
2022/01/29 07:02:50;;;;;;;206.73;101.72;;;;;;;;;;6223422;23;20357;-80
2022/01/29 07:05:16;;;;;;;214.80;111.95;;;;;;;;;;6222963;23;19996;-81
2022/01/29 07:07:42;;;;;;;209.85;110.82;;;;;;;;;;6224732;23;19999;-80
2022/01/29 07:10:09;;;;;;;154.23;77.15;;;;;;;;;;6223007;23;20012;-80
2022/01/29 07:12:39;;;;;;;96.32;47.40;;;;;;;;;;6222859;23;20003;-80
2022/01/29 07:15:06;;;;;;;87.37;42.67;;;;;;;;;;6222306;23;20054;-80
2022/01/29 07:17:32;;;;;;;97.10;45.40;;;;;;;;;;6250972;23;19992;-80
2022/01/29 07:19:58;;;;;;;84.82;44.28;;;;;;;;;;6227793;23;20000;-80
2022/01/29 07:22:25;;;;;;;79.93;42.75;;;;;;;;;;6223703;23;19992;-80
2022/01/29 07:24:51;;;;;;;86.22;45.13;;;;;;;;;;6223580;23;19997;-80
2022/01/29 07:27:17;;;;;;;100.43;51.55;;;;;;;;;;6250871;23;19985;-80
2022/01/29 07:29:43;;;;;;;77.03;43.40;;;;;;;;;;6222949;23;19988;-80
2022/01/29 07:34:45;;;;;;;85.28;40.22;;;;;;;;;;6212705;23;20016;-80
2022/01/29 07:37:11;;;;;;;84.75;38.67;;;;;;;;;;6250444;23;19988;-80
2022/01/29 07:39:37;;;;;;;69.50;36.72;;;;;;;;;;6249482;23;19996;-80
2022/01/29 07:42:03;;;;;;;60.35;31.15;;;;;;;;;;6199154;23;20079;-80
2022/01/29 07:44:29;;;;;;;49.92;24.38;;;;;;;;;;6250118;23;20003;-81
2022/01/29 07:46:55;;;;;;;51.28;25.02;;;;;;;;;;6250247;23;19996;-80
2022/01/29 07:49:21;;;;;;;49.65;23.42;;;;;;;;;;6250019;23;19992;-79
2022/01/29 07:51:47;;;;;;;38.25;19.38;;;;;;;;;;6222555;23;19995;-80
2022/01/29 07:59:14;;;;;;;38.17;19.85;;;;;;;;;;6189559;23;20430;-80
2022/01/29 08:01:40;;;;;;;34.88;18.23;;;;;;;;;;6249711;23;20423;-80
2022/01/29 08:04:06;;;;;;;41.70;18.05;;;;;;;;;;6222797;23;20027;-80
2022/01/29 08:06:32;;;;;;;41.38;20.08;;;;;;;;;;6249678;23;19996;-80
2022/01/29 08:08:58;;;;;;;34.55;20.13;;;;;;;;;;6223186;23;20000;-80
2022/01/29 08:11:25;;;;;;;42.35;18.88;;;;;;;;;;6249264;23;19996;-80
2022/01/29 08:13:51;;;;;;;107.38;24.92;;;;;;;;;;6250172;23;19993;-80
2022/01/29 08:16:17;;;;;;;30.23;18.30;;;;;;;;;;6191480;23;20066;-80
2022/01/29 08:18:45;;;;;;;37.50;19.40;;;;;;;;;;6248898;23;19996;-80
2022/01/29 08:21:12;;;;;;;31.25;16.05;;;;;;;;;;6249312;23;20008;-80
2022/01/29 08:23:38;;;;;;;35.83;17.10;;;;;;;;;;6225130;23;19992;-80
2022/01/29 08:26:04;;;;;;;32.13;17.60;;;;;;;;;;6227632;23;19992;-80
2022/01/29 08:28:31;;;;;;;32.25;16.55;;;;;;;;;;6222297;23;20003;-80
2022/01/29 08:30:57;;;;;;;29.75;17.00;;;;;;;;;;6248999;23;19992;-80
2022/01/29 08:33:23;;;;;;;36.95;18.42;;;;;;;;;;6248699;23;20003;-80
2022/01/29 08:35:49;;;;;;;33.80;18.65;;;;;;;;;;6248088;23;19993;-80
2022/01/29 08:38:15;;;;;;;33.20;18.67;;;;;;;;;;6224720;23;20383;-80
2022/01/29 08:40:41;;;;;;;35.35;19.08;;;;;;;;;;6222004;23;20008;-80
2022/01/29 08:43:08;;;;;;;23.85;14.30;;;;;;;;;;6221942;23;20103;-80
2022/01/29 08:45:34;;;;;;;36.17;16.35;;;;;;;;;;6248012;23;20306;-80
2022/01/29 08:48:00;;;;;;;38.20;17.95;;;;;;;;;;6252604;23;19992;-80
2022/01/29 08:50:26;;;;;;;35.38;16.17;;;;;;;;;;6223422;23;19996;-80
2022/01/29 08:52:53;;;;;;;27.98;16.00;;;;;;;;;;6248666;23;19996;-80
2022/01/29 08:55:19;;;;;;;35.90;17.40;;;;;;;;;;6222136;23;20054;-80
2022/01/29 08:57:45;;;;;;;35.20;18.13;;;;;;;;;;6251238;23;20330;-81
2022/01/29 09:00:12;;;;;;;44.55;19.17;;;;;;;;;;6248713;23;20016;-80
2022/01/29 09:02:38;;;;;;;30.80;17.95;;;;;;;;;;6222981;23;19999;-80
2022/01/29 09:10:09;;;;;;;36.45;19.60;;;;;;;;;;6217202;23;20342;-79
2022/01/29 09:12:35;;;;;;;78.05;23.58;;;;;;;;;;6248692;23;20287;-79
2022/01/29 09:15:01;;;;;;;52.15;24.88;;;;;;;;;;6222318;23;20038;-79
2022/01/29 09:17:27;;;;;;;78.60;27.40;;;;;;;;;;6197736;23;20048;-80
2022/01/29 09:19:53;;;;;;;47.22;23.15;;;;;;;;;;6249585;23;19996;-79
2022/01/29 09:27:14;;;;;;;56.03;23.85;;;;;;;;;;6171150;23;20434;-79
2022/01/29 09:29:40;;;;;;;56.20;24.17;;;;;;;;;;6231220;23;20389;-79
2022/01/29 09:32:06;;;;;;;46.13;19.75;;;;;;;;;;6222013;23;19996;-79
2022/01/29 09:34:32;;;;;;;47.05;22.88;;;;;;;;;;6222453;23;20377;-79
2022/01/29 09:36:58;;;;;;;41.08;20.52;;;;;;;;;;6250536;23;20047;-79
2022/01/29 09:39:24;;;;;;;52.55;21.77;;;;;;;;;;6221547;23;19996;-80
2022/01/29 09:41:50;;;;;;;42.33;25.17;;;;;;;;;;6248732;23;20011;-80
2022/01/29 09:44:16;;;;;;;79.78;25.35;;;;;;;;;;6248611;23;19992;-80
2022/01/29 09:46:46;;;;;;;42.38;22.55;;;;;;;;;;6222050;23;20063;-79
2022/01/29 09:49:13;;;;;;;48.42;23.70;;;;;;;;;;6223673;23;19999;-80
2022/01/29 09:51:39;;;;;;;63.92;23.65;;;;;;;;;;6221332;23;19996;-80
2022/01/29 09:54:05;;;;;;;46.45;24.55;;;;;;;;;;6247818;23;19992;-80
2022/01/29 09:59:05;;;;;;;52.05;25.85;;;;;;;;;;6220894;23;20020;-80
2022/01/29 10:01:32;;;;;;;51.83;25.92;;;;;;;;;;6223514;23;20035;-80
2022/01/29 10:08:53;;;;;;;58.75;33.28;;;;;;;;;;6202696;23;20020;-80
2022/01/29 10:11:20;;;;;;;63.65;33.22;;;;;;;;;;6239083;23;20038;-80
2022/01/29 10:13:47;;;;;;;73.90;32.70;;;;;;;;;;6248686;23;19995;-80
2022/01/29 10:16:13;;;;;;;68.45;34.72;;;;;;;;;;6248845;23;19992;-80
2022/01/29 10:21:10;;;;;;;64.97;34.20;;;;;;;;;;6190357;23;20024;-80
2022/01/29 10:23:36;;;;;;;67.43;35.67;;;;;;;;;;6249080;23;20067;-80
2022/01/29 10:26:04;;;;;;;78.05;35.53;;;;;;;;;;6248625;23;20454;-80
2022/01/29 10:31:05;;;;;;;57.15;31.75;;;;;;;;;;6195278;23;20027;-80
2022/01/29 10:33:31;;;;;;;44.33;22.45;;;;;;;;;;6249861;23;20039;-80
2022/01/29 10:35:58;;;;;;;48.88;27.77;;;;;;;;;;6223325;23;19988;-81
2022/01/29 10:38:29;;;;;;;72.05;30.13;;;;;;;;;;6249275;23;20035;-80
2022/01/29 10:41:12;;;;;;;67.03;32.15;;;;;;;;;;6221950;23;20040;-80
2022/01/29 10:43:55;;;;;;;50.95;28.27;;;;;;;;;;6222718;23;19993;-81
2022/01/29 10:46:28;;;;;;;55.78;29.48;;;;;;;;;;6222207;23;20071;-80
2022/01/29 10:48:55;;;;;;;63.72;29.08;;;;;;;;;;6222350;23;20000;-80
2022/01/29 10:51:21;;;;;;;79.50;34.90;;;;;;;;;;6221575;23;20084;-80
2022/01/29 10:53:47;;;;;;;62.70;31.27;;;;;;;;;;6223751;23;20340;-80
2022/01/29 10:56:13;;;;;;;75.10;34.50;;;;;;;;;;6197478;23;20042;-80
2022/01/29 10:58:40;;;;;;;63.85;33.20;;;;;;;;;;6248318;23;20326;-80
2022/01/29 11:01:13;;;;;;;82.57;35.40;;;;;;;;;;6197057;23;20037;-80
2022/01/29 11:03:39;;;;;;;76.05;37.03;;;;;;;;;;6248547;23;20031;-80
2022/01/29 11:06:07;;;;;;;62.35;33.40;;;;;;;;;;6248899;23;19995;-80
2022/01/29 11:08:33;;;;;;;75.80;34.67;;;;;;;;;;6250004;23;19988;-80
2022/01/29 11:11:00;;;;;;;80.85;36.60;;;;;;;;;;6224283;23;20065;-80
2022/01/29 11:13:26;;;;;;;71.60;34.67;;;;;;;;;;6223352;23;20071;-80
2022/01/29 11:15:52;;;;;;;55.20;32.17;;;;;;;;;;6227635;23;19988;-80
2022/01/29 11:18:19;;;;;;;63.13;32.47;;;;;;;;;;6224707;23;19988;-80
2022/01/29 11:20:45;;;;;;;63.30;34.75;;;;;;;;;;6250416;23;20004;-80
2022/01/29 11:23:11;;;;;;;67.15;38.88;;;;;;;;;;6247839;23;20421;-80
2022/01/29 11:25:37;;;;;;;71.00;38.28;;;;;;;;;;6255377;23;19988;-80
2022/01/29 11:28:14;;;;;;;66.70;36.50;;;;;;;;;;6271151;23;19992;-80
2022/01/29 11:33:07;;;;;;;85.78;44.90;;;;;;;;;;6185398;23;20024;-80
2022/01/29 11:35:48;;;;;;;95.38;45.65;;;;;;;;;;6250355;23;20083;-80
2022/01/29 11:38:26;;;;;;;105.22;56.35;;;;;;;;;;6250242;23;20387;-80
2022/01/29 11:40:57;;;;;;;92.05;48.95;;;;;;;;;;6250924;23;20004;-81
2022/01/29 11:43:24;;;;;;;104.88;41.83;;;;;;;;;;6251302;23;20012;-81
2022/01/29 11:45:52;;;;;;;81.35;37.13;;;;;;;;;;6249898;23;19999;-80
2022/01/29 11:48:28;;;;;;;62.53;32.45;;;;;;;;;;6225517;23;19992;-80
2022/01/29 11:50:55;;;;;;;64.45;31.77;;;;;;;;;;6198366;23;19997;-80
2022/01/29 11:53:22;;;;;;;62.03;27.23;;;;;;;;;;6249526;23;20049;-80
2022/01/29 11:55:51;;;;;;;54.53;27.88;;;;;;;;;;6224519;23;20019;-80
2022/01/29 11:58:18;;;;;;;52.28;27.55;;;;;;;;;;6223151;23;19988;-79
2022/01/29 12:00:48;;;;;;;51.97;22.95;;;;;;;;;;6222516;23;20008;-80
2022/01/29 12:03:33;;;;;;;44.07;24.03;;;;;;;;;;6250996;23;20038;-80
2022/01/29 12:06:06;;;;;;;47.10;24.00;;;;;;;;;;6250415;23;20002;-80
2022/01/29 12:08:38;;;;;;;45.83;23.73;;;;;;;;;;6250432;23;20023;-80
2022/01/29 12:11:13;;;;;;;42.42;20.83;;;;;;;;;;6249780;23;19992;-81
2022/01/29 12:14:02;;;;;;;37.47;21.65;;;;;;;;;;6248494;23;20107;-80
2022/01/29 12:16:50;;;;;;;42.97;21.63;;;;;;;;;;6198635;23;20001;-81
2022/01/29 12:19:34;;;;;;;52.80;25.10;;;;;;;;;;6249699;23;20000;-81
2022/01/29 12:22:01;;;;;;;48.88;27.50;;;;;;;;;;6198030;23;20012;-80
2022/01/29 12:24:27;;;;;;;45.80;22.23;;;;;;;;;;6222853;23;20395;-81
2022/01/29 12:26:54;;;;;;;42.38;25.23;;;;;;;;;;6223388;23;20073;-80
2022/01/29 12:29:21;;;;;;;35.83;23.08;;;;;;;;;;6249596;23;19988;-80
2022/01/29 12:31:48;;;;;;;43.38;23.27;;;;;;;;;;6223080;23;20406;-80
2022/01/29 12:34:14;;;;;;;56.83;27.33;;;;;;;;;;6252181;23;20009;-81
2022/01/29 12:36:40;;;;;;;47.40;24.58;;;;;;;;;;6254751;23;20047;-80
2022/01/29 12:39:08;;;;;;;45.70;24.17;;;;;;;;;;6227792;23;19996;-81
2022/01/29 12:41:38;;;;;;;49.88;27.45;;;;;;;;;;6253292;23;20004;-81
2022/01/29 12:44:08;;;;;;;57.22;28.67;;;;;;;;;;6253021;23;19993;-80
2022/01/29 12:46:35;;;;;;;45.03;27.50;;;;;;;;;;6176698;23;20079;-81
2022/01/29 12:51:31;;;;;;;56.42;28.85;;;;;;;;;;6233396;23;20020;-81
2022/01/29 12:54:01;;;;;;;53.72;27.65;;;;;;;;;;6252991;23;20022;-81
2022/01/29 12:56:37;;;;;;;51.20;27.10;;;;;;;;;;6200750;23;20023;-81
2022/01/29 12:59:04;;;;;;;47.50;24.98;;;;;;;;;;6225506;23;20018;-81
2022/01/29 13:01:30;;;;;;;45.80;23.83;;;;;;;;;;6251729;23;20003;-81
2022/01/29 13:04:04;;;;;;;49.50;26.55;;;;;;;;;;6253317;23;19992;-81
2022/01/29 13:06:30;;;;;;;57.25;28.55;;;;;;;;;;6252269;23;20030;-81
2022/01/29 13:09:15;;;;;;;47.03;25.48;;;;;;;;;;6199814;23;20314;-80
2022/01/29 13:11:41;;;;;;;50.10;26.88;;;;;;;;;;6260828;22;20318;-80
2022/01/29 13:14:11;;;;;;;52.95;25.88;;;;;;;;;;6226144;23;20007;-80
2022/01/29 13:16:38;;;;;;;46.88;26.67;;;;;;;;;;6226210;23;20003;-80
2022/01/29 13:28:59;;;;;;;45.47;24.20;;;;;;;;;;6195354;23;20020;-80
2022/01/29 13:31:26;;;;;;;42.25;24.00;;;;;;;;;;6241987;23;20333;-81
2022/01/29 13:33:52;;;;;;;48.85;24.13;;;;;;;;;;6253582;23;19988;-80
2022/01/29 13:36:31;;;;;;;50.88;28.33;;;;;;;;;;6225867;23;19992;-80
2022/01/29 13:39:10;;;;;;;32.83;17.00;;;;;;;;;;6200932;23;20317;-80
2022/01/29 13:44:29;;;;;;;45.15;23.00;;;;;;;;;;6178665;23;20012;-74
2022/01/29 13:47:06;;;;;;;43.05;22.88;;;;;;;;;;6213266;23;20411;-80
2022/01/29 13:49:32;;;;;;;46.20;25.70;;;;;;;;;;6252605;23;19996;-81
2022/01/29 13:51:58;;;;;;;42.75;25.77;;;;;;;;;;6251936;23;20050;-80
2022/01/29 13:54:24;;;;;;;43.78;19.17;;;;;;;;;;6225771;23;20387;-80
2022/01/29 13:56:50;;;;;;;38.30;21.33;;;;;;;;;;6251576;23;19989;-80
2022/01/29 13:59:17;;;;;;;35.35;18.30;;;;;;;;;;6252538;23;20031;-81
2022/01/29 14:01:43;;;;;;;49.40;25.63;;;;;;;;;;6254156;23;20004;-81
2022/01/29 14:04:25;;;;;;;48.90;25.60;;;;;;;;;;6252174;23;19999;-80
2022/01/29 14:07:00;;;;;;;47.88;25.00;;;;;;;;;;6224734;23;19996;-80
2022/01/29 14:09:31;;;;;;;48.38;23.98;;;;;;;;;;6251441;23;19999;-81
2022/01/29 14:11:57;;;;;;;50.97;27.42;;;;;;;;;;6225124;23;19992;-80
2022/01/29 14:14:31;;;;;;;45.08;25.15;;;;;;;;;;6224471;23;19996;-80
2022/01/29 14:16:58;;;;;;;46.83;24.55;;;;;;;;;;6251004;23;20006;-80
2022/01/29 14:19:28;;;;;;;52.25;29.23;;;;;;;;;;6225533;23;20378;-80
2022/01/29 14:21:54;;;;;;;52.50;27.25;;;;;;;;;;6182491;23;20372;-80
2022/01/29 14:24:20;;;;;;;50.90;26.35;;;;;;;;;;6250806;23;19993;-81
2022/01/29 14:26:47;;;;;;;45.35;27.20;;;;;;;;;;6252238;23;20298;-81
2022/01/29 14:29:13;;;;;;;54.42;28.80;;;;;;;;;;6199646;23;20002;-80
2022/01/29 14:31:40;;;;;;;44.70;24.25;;;;;;;;;;6224174;23;19992;-81
2022/01/29 14:34:06;;;;;;;45.63;26.10;;;;;;;;;;6224855;23;20042;-81
2022/01/29 14:36:33;;;;;;;51.45;27.30;;;;;;;;;;6251307;23;19992;-80
2022/01/29 14:38:59;;;;;;;49.55;25.20;;;;;;;;;;6225059;23;19996;-81
2022/01/29 14:41:25;;;;;;;57.22;30.23;;;;;;;;;;6224652;23;20015;-81
2022/01/29 14:43:51;;;;;;;49.30;25.92;;;;;;;;;;6251685;23;20294;-81
2022/01/29 14:46:17;;;;;;;65.97;36.50;;;;;;;;;;6248600;23;20402;-80
2022/01/29 14:48:43;;;;;;;59.47;28.70;;;;;;;;;;6227099;23;19992;-81
2022/01/29 14:51:09;;;;;;;50.10;29.75;;;;;;;;;;6259669;23;20037;-80
2022/01/29 14:53:36;;;;;;;50.33;28.77;;;;;;;;;;6233546;23;19992;-80
2022/01/29 14:58:34;;;;;;;53.05;25.85;;;;;;;;;;6238526;23;20036;-81
2022/01/29 15:01:01;;;;;;;43.65;24.88;;;;;;;;;;6224706;23;20008;-80
2022/01/29 15:03:27;;;;;;;41.95;18.90;;;;;;;;;;6190046;23;20402;-80
2022/01/29 15:05:53;;;;;;;35.42;19.10;;;;;;;;;;6226168;23;20471;-81
2022/01/29 15:08:19;;;;;;;36.58;19.90;;;;;;;;;;6225595;23;20428;-81
2022/01/29 15:15:58;;;;;;;41.28;20.33;;;;;;;;;;6211251;23;20020;-81
2022/01/29 15:18:26;;;;;;;34.25;21.05;;;;;;;;;;6253115;23;20161;-80
2022/01/29 15:20:53;;;;;;;37.22;20.55;;;;;;;;;;6226230;23;20011;-81
2022/01/29 15:23:20;;;;;;;39.78;21.13;;;;;;;;;;6224481;23;20369;-81
2022/01/29 15:25:47;;;;;;;32.92;21.67;;;;;;;;;;6250736;23;19992;-81
2022/01/29 15:30:44;;;;;;;45.30;23.80;;;;;;;;;;6199045;23;19919;-81
2022/01/29 15:33:11;;;;;;;51.10;25.80;;;;;;;;;;6252700;23;20042;-80
2022/01/29 15:35:37;;;;;;;41.92;21.60;;;;;;;;;;6225306;23;20394;-81
2022/01/29 15:38:04;;;;;;;42.33;24.85;;;;;;;;;;6253011;23;20000;-81
2022/01/29 15:40:30;;;;;;;46.90;23.73;;;;;;;;;;6252619;23;20004;-81
2022/01/29 15:42:56;;;;;;;33.00;20.30;;;;;;;;;;6251934;23;20042;-81
2022/01/29 15:45:23;;;;;;;37.45;20.92;;;;;;;;;;6224941;23;19992;-81
2022/01/29 15:47:49;;;;;;;46.47;22.85;;;;;;;;;;6226424;23;19993;-81
2022/01/29 15:50:16;;;;;;;38.15;20.45;;;;;;;;;;6251820;23;20003;-81
2022/01/29 15:52:42;;;;;;;37.33;21.27;;;;;;;;;;6224066;23;19992;-80
2022/01/29 15:55:08;;;;;;;34.10;18.60;;;;;;;;;;6252613;23;20369;-80
2022/01/29 15:57:36;;;;;;;35.13;20.25;;;;;;;;;;6252436;23;19996;-81
2022/01/29 16:00:05;;;;;;;38.08;19.55;;;;;;;;;;6252160;23;20016;-80
2022/01/29 16:02:31;;;;;;;38.40;20.75;;;;;;;;;;6224054;23;20310;-81
2022/01/29 16:04:57;;;;;;;38.95;20.85;;;;;;;;;;6246930;23;20016;-80
2022/01/29 16:07:25;;;;;;;31.65;17.42;;;;;;;;;;6221665;23;20001;-80
2022/01/29 16:09:51;;;;;;;34.65;20.40;;;;;;;;;;6222467;23;19996;-80
2022/01/29 16:12:17;;;;;;;38.95;21.83;;;;;;;;;;6249069;23;20114;-80
2022/01/29 16:14:43;;;;;;;38.35;19.65;;;;;;;;;;6251153;23;20382;-80
2022/01/29 16:17:10;;;;;;;33.83;20.25;;;;;;;;;;6226384;23;20390;-80
2022/01/29 16:19:36;;;;;;;42.85;22.17;;;;;;;;;;6251618;23;20015;-80